sensor_id;sensor_type;location;lat;lon;timestamp;P1;durP1;ratioP1;P2;durP2;ratioP2
18449;SDS011;9354;50.194;7.690;2023-02-01T00:01:19;5.13;;;3.07;;
18449;SDS011;9354;50.194;7.690;2023-02-01T00:03:47;5.57;;;3.30;;
18449;SDS011;9354;50.194;7.690;2023-02-01T00:06:14;5.10;;;3.40;;
18449;SDS011;9354;50.194;7.690;2023-02-01T00:08:41;7.70;;;3.80;;
18449;SDS011;9354;50.194;7.690;2023-02-01T00:11:09;9.17;;;5.27;;
18449;SDS011;9354;50.194;7.690;2023-02-01T00:13:38;7.53;;;4.60;;
18449;SDS011;9354;50.194;7.690;2023-02-01T00:16:08;7.93;;;4.90;;
18449;SDS011;9354;50.194;7.690;2023-02-01T00:18:38;9.10;;;5.47;;
18449;SDS011;9354;50.194;7.690;2023-02-01T00:21:05;14.20;;;6.27;;
18449;SDS011;9354;50.194;7.690;2023-02-01T00:23:33;11.00;;;6.60;;
18449;SDS011;9354;50.194;7.690;2023-02-01T00:26:01;11.83;;;6.00;;
18449;SDS011;9354;50.194;7.690;2023-02-01T00:28:28;12.67;;;6.93;;
18449;SDS011;9354;50.194;7.690;2023-02-01T00:30:56;10.23;;;5.87;;
18449;SDS011;9354;50.194;7.690;2023-02-01T00:33:25;9.37;;;5.70;;
18449;SDS011;9354;50.194;7.690;2023-02-01T00:35:55;9.17;;;5.40;;
18449;SDS011;9354;50.194;7.690;2023-02-01T00:38:24;9.20;;;5.20;;
18449;SDS011;9354;50.194;7.690;2023-02-01T00:40:51;10.13;;;5.37;;
18449;SDS011;9354;50.194;7.690;2023-02-01T00:43:18;7.97;;;5.03;;
18449;SDS011;9354;50.194;7.690;2023-02-01T00:45:46;10.47;;;5.20;;
18449;SDS011;9354;50.194;7.690;2023-02-01T00:48:13;8.83;;;5.30;;
18449;SDS011;9354;50.194;7.690;2023-02-01T00:50:42;8.23;;;5.17;;
18449;SDS011;9354;50.194;7.690;2023-02-01T00:53:10;9.87;;;5.43;;
18449;SDS011;9354;50.194;7.690;2023-02-01T00:55:38;10.00;;;5.13;;
18449;SDS011;9354;50.194;7.690;2023-02-01T00:58:05;9.97;;;5.27;;
18449;SDS011;9354;50.194;7.690;2023-02-01T01:00:34;7.57;;;4.73;;
18449;SDS011;9354;50.194;7.690;2023-02-01T01:03:02;8.80;;;4.97;;
18449;SDS011;9354;50.194;7.690;2023-02-01T01:05:44;10.17;;;5.30;;
18449;SDS011;9354;50.194;7.690;2023-02-01T01:08:12;9.43;;;5.17;;
18449;SDS011;9354;50.194;7.690;2023-02-01T01:10:39;9.87;;;4.97;;
18449;SDS011;9354;50.194;7.690;2023-02-01T01:13:07;8.47;;;5.17;;
18449;SDS011;9354;50.194;7.690;2023-02-01T01:15:35;12.47;;;4.53;;
18449;SDS011;9354;50.194;7.690;2023-02-01T01:18:04;6.33;;;3.90;;
18449;SDS011;9354;50.194;7.690;2023-02-01T01:20:33;7.13;;;3.53;;
18449;SDS011;9354;50.194;7.690;2023-02-01T01:23:03;7.20;;;4.20;;
18449;SDS011;9354;50.194;7.690;2023-02-01T01:25:31;8.40;;;3.43;;
18449;SDS011;9354;50.194;7.690;2023-02-01T01:27:58;5.90;;;3.43;;
18449;SDS011;9354;50.194;7.690;2023-02-01T01:30:26;6.67;;;3.40;;
18449;SDS011;9354;50.194;7.690;2023-02-01T01:32:53;7.50;;;3.77;;
18449;SDS011;9354;50.194;7.690;2023-02-01T01:35:23;8.90;;;3.57;;
18449;SDS011;9354;50.194;7.690;2023-02-01T01:37:51;7.33;;;3.43;;
18449;SDS011;9354;50.194;7.690;2023-02-01T01:40:19;7.90;;;2.97;;
18449;SDS011;9354;50.194;7.690;2023-02-01T01:42:47;5.27;;;2.97;;
18449;SDS011;9354;50.194;7.690;2023-02-01T01:45:20;4.40;;;2.80;;
18449;SDS011;9354;50.194;7.690;2023-02-01T01:47:51;7.20;;;3.23;;
18449;SDS011;9354;50.194;7.690;2023-02-01T01:50:22;7.37;;;2.87;;
18449;SDS011;9354;50.194;7.690;2023-02-01T01:52:54;6.20;;;3.07;;
18449;SDS011;9354;50.194;7.690;2023-02-01T01:55:25;6.80;;;3.20;;
18449;SDS011;9354;50.194;7.690;2023-02-01T01:57:57;4.80;;;2.60;;
18449;SDS011;9354;50.194;7.690;2023-02-01T02:00:29;4.10;;;2.60;;
18449;SDS011;9354;50.194;7.690;2023-02-01T02:02:57;4.30;;;2.47;;
18449;SDS011;9354;50.194;7.690;2023-02-01T02:05:29;4.43;;;2.70;;
18449;SDS011;9354;50.194;7.690;2023-02-01T02:07:58;4.50;;;2.40;;
18449;SDS011;9354;50.194;7.690;2023-02-01T02:10:28;7.30;;;2.77;;
18449;SDS011;9354;50.194;7.690;2023-02-01T02:13:09;3.97;;;2.30;;
18449;SDS011;9354;50.194;7.690;2023-02-01T02:15:37;8.03;;;2.80;;
18449;SDS011;9354;50.194;7.690;2023-02-01T02:18:10;4.60;;;2.50;;
18449;SDS011;9354;50.194;7.690;2023-02-01T02:20:46;5.00;;;2.60;;
18449;SDS011;9354;50.194;7.690;2023-02-01T02:23:40;4.97;;;2.40;;
18449;SDS011;9354;50.194;7.690;2023-02-01T02:26:35;5.33;;;2.57;;
18449;SDS011;9354;50.194;7.690;2023-02-01T02:32:44;4.50;;;2.30;;
18449;SDS011;9354;50.194;7.690;2023-02-01T02:35:32;5.00;;;2.83;;
18449;SDS011;9354;50.194;7.690;2023-02-01T02:38:09;4.23;;;2.43;;
18449;SDS011;9354;50.194;7.690;2023-02-01T02:40:44;4.70;;;2.53;;
18449;SDS011;9354;50.194;7.690;2023-02-01T02:43:18;5.70;;;3.00;;
18449;SDS011;9354;50.194;7.690;2023-02-01T02:46:12;8.80;;;2.80;;
18449;SDS011;9354;50.194;7.690;2023-02-01T02:49:08;6.20;;;2.77;;
18449;SDS011;9354;50.194;7.690;2023-02-01T02:51:41;5.93;;;2.77;;
18449;SDS011;9354;50.194;7.690;2023-02-01T02:54:35;7.50;;;2.40;;
18449;SDS011;9354;50.194;7.690;2023-02-01T02:57:18;9.93;;;2.77;;
18449;SDS011;9354;50.194;7.690;2023-02-01T03:00:08;6.27;;;2.80;;
18449;SDS011;9354;50.194;7.690;2023-02-01T03:02:55;5.30;;;2.73;;
18449;SDS011;9354;50.194;7.690;2023-02-01T03:05:41;7.53;;;2.87;;
18449;SDS011;9354;50.194;7.690;2023-02-01T03:08:13;5.53;;;2.97;;
18449;SDS011;9354;50.194;7.690;2023-02-01T03:10:43;6.77;;;2.83;;
18449;SDS011;9354;50.194;7.690;2023-02-01T03:13:18;6.03;;;2.70;;
18449;SDS011;9354;50.194;7.690;2023-02-01T03:15:51;7.47;;;2.60;;
18449;SDS011;9354;50.194;7.690;2023-02-01T03:18:25;8.80;;;3.03;;
18449;SDS011;9354;50.194;7.690;2023-02-01T03:20:56;5.83;;;3.13;;
18449;SDS011;9354;50.194;7.690;2023-02-01T03:23:27;7.90;;;3.20;;
18449;SDS011;9354;50.194;7.690;2023-02-01T03:25:59;6.93;;;2.90;;
18449;SDS011;9354;50.194;7.690;2023-02-01T03:28:29;6.07;;;3.10;;
18449;SDS011;9354;50.194;7.690;2023-02-01T03:30:59;7.60;;;3.37;;
18449;SDS011;9354;50.194;7.690;2023-02-01T03:33:27;7.20;;;3.07;;
18449;SDS011;9354;50.194;7.690;2023-02-01T03:36:04;8.33;;;3.60;;
18449;SDS011;9354;50.194;7.690;2023-02-01T03:38:42;11.53;;;3.07;;
18449;SDS011;9354;50.194;7.690;2023-02-01T03:41:14;9.00;;;3.53;;
18449;SDS011;9354;50.194;7.690;2023-02-01T03:43:48;12.80;;;3.80;;
18449;SDS011;9354;50.194;7.690;2023-02-01T03:46:22;12.17;;;3.67;;
18449;SDS011;9354;50.194;7.690;2023-02-01T03:48:58;10.40;;;3.90;;
18449;SDS011;9354;50.194;7.690;2023-02-01T03:51:28;9.67;;;3.80;;
18449;SDS011;9354;50.194;7.690;2023-02-01T03:53:58;16.57;;;3.57;;
18449;SDS011;9354;50.194;7.690;2023-02-01T03:56:28;13.03;;;3.30;;
18449;SDS011;9354;50.194;7.690;2023-02-01T03:58:58;11.00;;;3.37;;
18449;SDS011;9354;50.194;7.690;2023-02-01T04:01:27;13.70;;;3.33;;
18449;SDS011;9354;50.194;7.690;2023-02-01T04:03:55;7.90;;;2.43;;
18449;SDS011;9354;50.194;7.690;2023-02-01T04:06:23;12.63;;;3.53;;
18449;SDS011;9354;50.194;7.690;2023-02-01T04:08:51;10.20;;;3.67;;
18449;SDS011;9354;50.194;7.690;2023-02-01T04:11:21;14.07;;;3.30;;
18449;SDS011;9354;50.194;7.690;2023-02-01T04:13:48;12.10;;;3.17;;
18449;SDS011;9354;50.194;7.690;2023-02-01T04:16:16;12.87;;;3.23;;
18449;SDS011;9354;50.194;7.690;2023-02-01T04:18:43;14.93;;;3.27;;
18449;SDS011;9354;50.194;7.690;2023-02-01T04:21:10;11.73;;;3.37;;
18449;SDS011;9354;50.194;7.690;2023-02-01T04:23:38;16.30;;;3.17;;
18449;SDS011;9354;50.194;7.690;2023-02-01T04:26:05;18.70;;;3.50;;
18449;SDS011;9354;50.194;7.690;2023-02-01T04:28:34;11.43;;;3.43;;
18449;SDS011;9354;50.194;7.690;2023-02-01T04:31:01;10.70;;;3.03;;
18449;SDS011;9354;50.194;7.690;2023-02-01T04:33:29;13.27;;;3.23;;
18449;SDS011;9354;50.194;7.690;2023-02-01T04:35:57;16.83;;;4.10;;
18449;SDS011;9354;50.194;7.690;2023-02-01T04:38:24;19.40;;;4.67;;
18449;SDS011;9354;50.194;7.690;2023-02-01T04:40:54;14.83;;;3.67;;
18449;SDS011;9354;50.194;7.690;2023-02-01T04:43:22;18.80;;;3.80;;
18449;SDS011;9354;50.194;7.690;2023-02-01T04:45:50;15.37;;;3.70;;
18449;SDS011;9354;50.194;7.690;2023-02-01T04:48:19;10.90;;;4.07;;
18449;SDS011;9354;50.194;7.690;2023-02-01T04:50:48;12.53;;;3.10;;
18449;SDS011;9354;50.194;7.690;2023-02-01T04:53:15;15.87;;;3.40;;
18449;SDS011;9354;50.194;7.690;2023-02-01T04:55:43;15.30;;;3.40;;
18449;SDS011;9354;50.194;7.690;2023-02-01T04:58:11;15.50;;;3.70;;
18449;SDS011;9354;50.194;7.690;2023-02-01T05:00:38;11.20;;;3.80;;
18449;SDS011;9354;50.194;7.690;2023-02-01T05:03:07;18.63;;;3.73;;
18449;SDS011;9354;50.194;7.690;2023-02-01T05:05:34;11.10;;;3.63;;
18449;SDS011;9354;50.194;7.690;2023-02-01T05:08:01;13.73;;;3.53;;
18449;SDS011;9354;50.194;7.690;2023-02-01T05:10:29;12.97;;;3.67;;
18449;SDS011;9354;50.194;7.690;2023-02-01T05:12:56;11.70;;;3.00;;
18449;SDS011;9354;50.194;7.690;2023-02-01T05:15:41;15.03;;;3.87;;
18449;SDS011;9354;50.194;7.690;2023-02-01T05:18:10;17.20;;;3.47;;
18449;SDS011;9354;50.194;7.690;2023-02-01T05:20:37;12.97;;;3.80;;
18449;SDS011;9354;50.194;7.690;2023-02-01T05:23:05;15.10;;;3.57;;
18449;SDS011;9354;50.194;7.690;2023-02-01T05:25:32;10.57;;;3.57;;
18449;SDS011;9354;50.194;7.690;2023-02-01T05:27:59;12.17;;;3.50;;
18449;SDS011;9354;50.194;7.690;2023-02-01T05:30:27;18.13;;;4.13;;
18449;SDS011;9354;50.194;7.690;2023-02-01T05:32:54;13.87;;;3.40;;
18449;SDS011;9354;50.194;7.690;2023-02-01T05:35:23;14.80;;;3.47;;
18449;SDS011;9354;50.194;7.690;2023-02-01T05:37:50;14.77;;;3.87;;
18449;SDS011;9354;50.194;7.690;2023-02-01T05:40:17;11.93;;;3.30;;
18449;SDS011;9354;50.194;7.690;2023-02-01T05:42:45;14.20;;;3.50;;
18449;SDS011;9354;50.194;7.690;2023-02-01T05:45:12;12.23;;;3.30;;
18449;SDS011;9354;50.194;7.690;2023-02-01T05:47:39;17.90;;;3.63;;
18449;SDS011;9354;50.194;7.690;2023-02-01T05:50:07;15.40;;;3.63;;
18449;SDS011;9354;50.194;7.690;2023-02-01T05:52:36;17.70;;;3.60;;
18449;SDS011;9354;50.194;7.690;2023-02-01T05:55:04;16.63;;;3.90;;
18449;SDS011;9354;50.194;7.690;2023-02-01T05:57:32;14.80;;;3.50;;
18449;SDS011;9354;50.194;7.690;2023-02-01T05:59:59;11.20;;;3.30;;
18449;SDS011;9354;50.194;7.690;2023-02-01T06:02:26;15.80;;;3.30;;
18449;SDS011;9354;50.194;7.690;2023-02-01T06:04:54;14.60;;;3.20;;
18449;SDS011;9354;50.194;7.690;2023-02-01T06:07:21;10.67;;;3.20;;
18449;SDS011;9354;50.194;7.690;2023-02-01T06:09:50;9.27;;;3.17;;
18449;SDS011;9354;50.194;7.690;2023-02-01T06:12:17;13.90;;;2.80;;
18449;SDS011;9354;50.194;7.690;2023-02-01T06:14:45;11.07;;;3.13;;
18449;SDS011;9354;50.194;7.690;2023-02-01T06:17:12;18.17;;;2.80;;
18449;SDS011;9354;50.194;7.690;2023-02-01T06:19:39;16.43;;;3.40;;
18449;SDS011;9354;50.194;7.690;2023-02-01T06:22:07;13.47;;;3.07;;
18449;SDS011;9354;50.194;7.690;2023-02-01T06:24:34;15.77;;;3.13;;
18449;SDS011;9354;50.194;7.690;2023-02-01T06:27:03;20.33;;;2.87;;
18449;SDS011;9354;50.194;7.690;2023-02-01T06:29:30;13.40;;;3.47;;
18449;SDS011;9354;50.194;7.690;2023-02-01T06:31:57;14.13;;;3.00;;
18449;SDS011;9354;50.194;7.690;2023-02-01T06:34:25;12.87;;;2.90;;
18449;SDS011;9354;50.194;7.690;2023-02-01T06:36:52;19.10;;;3.60;;
18449;SDS011;9354;50.194;7.690;2023-02-01T06:39:20;16.20;;;2.93;;
18449;SDS011;9354;50.194;7.690;2023-02-01T06:41:48;15.10;;;3.17;;
18449;SDS011;9354;50.194;7.690;2023-02-01T06:44:17;14.50;;;2.80;;
18449;SDS011;9354;50.194;7.690;2023-02-01T06:46:44;18.33;;;3.33;;
18449;SDS011;9354;50.194;7.690;2023-02-01T06:49:11;11.83;;;2.80;;
18449;SDS011;9354;50.194;7.690;2023-02-01T06:51:39;10.57;;;2.80;;
18449;SDS011;9354;50.194;7.690;2023-02-01T06:54:06;16.90;;;3.10;;
18449;SDS011;9354;50.194;7.690;2023-02-01T06:56:33;15.27;;;2.70;;
18449;SDS011;9354;50.194;7.690;2023-02-01T06:59:03;15.30;;;2.97;;
18449;SDS011;9354;50.194;7.690;2023-02-01T07:01:32;11.03;;;2.83;;
18449;SDS011;9354;50.194;7.690;2023-02-01T07:04:00;11.53;;;2.57;;
18449;SDS011;9354;50.194;7.690;2023-02-01T07:06:27;16.03;;;2.67;;
18449;SDS011;9354;50.194;7.690;2023-02-01T07:08:55;13.37;;;2.77;;
18449;SDS011;9354;50.194;7.690;2023-02-01T07:11:23;10.20;;;3.10;;
18449;SDS011;9354;50.194;7.690;2023-02-01T07:13:52;16.73;;;2.87;;
18449;SDS011;9354;50.194;7.690;2023-02-01T07:16:20;14.47;;;3.30;;
18449;SDS011;9354;50.194;7.690;2023-02-01T07:18:49;16.60;;;2.63;;
18449;SDS011;9354;50.194;7.690;2023-02-01T07:21:17;17.13;;;3.10;;
18449;SDS011;9354;50.194;7.690;2023-02-01T07:23:44;14.20;;;3.13;;
18449;SDS011;9354;50.194;7.690;2023-02-01T07:26:13;19.50;;;3.33;;
18449;SDS011;9354;50.194;7.690;2023-02-01T07:28:41;11.77;;;2.77;;
18449;SDS011;9354;50.194;7.690;2023-02-01T07:31:10;12.77;;;3.00;;
18449;SDS011;9354;50.194;7.690;2023-02-01T07:33:39;12.07;;;2.67;;
18449;SDS011;9354;50.194;7.690;2023-02-01T07:36:10;10.17;;;3.00;;
18449;SDS011;9354;50.194;7.690;2023-02-01T07:38:39;17.03;;;2.67;;
18449;SDS011;9354;50.194;7.690;2023-02-01T07:41:07;17.10;;;2.57;;
18449;SDS011;9354;50.194;7.690;2023-02-01T07:43:34;13.53;;;3.10;;
18449;SDS011;9354;50.194;7.690;2023-02-01T07:46:03;10.33;;;3.00;;
18449;SDS011;9354;50.194;7.690;2023-02-01T07:48:32;17.07;;;2.90;;
18449;SDS011;9354;50.194;7.690;2023-02-01T07:51:00;9.10;;;2.80;;
18449;SDS011;9354;50.194;7.690;2023-02-01T07:53:31;15.73;;;2.47;;
18449;SDS011;9354;50.194;7.690;2023-02-01T07:55:59;18.53;;;3.03;;
18449;SDS011;9354;50.194;7.690;2023-02-01T07:58:27;11.33;;;2.20;;
18449;SDS011;9354;50.194;7.690;2023-02-01T08:00:55;8.17;;;2.10;;
18449;SDS011;9354;50.194;7.690;2023-02-01T08:03:39;14.13;;;2.70;;
18449;SDS011;9354;50.194;7.690;2023-02-01T08:06:07;24.33;;;3.13;;
18449;SDS011;9354;50.194;7.690;2023-02-01T08:08:35;12.37;;;2.40;;
18449;SDS011;9354;50.194;7.690;2023-02-01T08:11:03;16.67;;;2.87;;
18449;SDS011;9354;50.194;7.690;2023-02-01T08:13:32;16.40;;;3.10;;
18449;SDS011;9354;50.194;7.690;2023-02-01T08:16:00;14.97;;;3.30;;
18449;SDS011;9354;50.194;7.690;2023-02-01T08:18:28;11.97;;;2.60;;
18449;SDS011;9354;50.194;7.690;2023-02-01T08:20:56;13.17;;;2.70;;
18449;SDS011;9354;50.194;7.690;2023-02-01T08:23:23;12.43;;;2.67;;
18449;SDS011;9354;50.194;7.690;2023-02-01T08:25:52;10.63;;;2.60;;
18449;SDS011;9354;50.194;7.690;2023-02-01T08:28:19;8.30;;;2.43;;
18449;SDS011;9354;50.194;7.690;2023-02-01T08:30:47;16.53;;;3.37;;
18449;SDS011;9354;50.194;7.690;2023-02-01T08:33:15;9.80;;;2.30;;
18449;SDS011;9354;50.194;7.690;2023-02-01T08:35:42;8.73;;;2.33;;
18449;SDS011;9354;50.194;7.690;2023-02-01T08:38:09;18.63;;;2.57;;
18449;SDS011;9354;50.194;7.690;2023-02-01T08:40:37;16.40;;;3.17;;
18449;SDS011;9354;50.194;7.690;2023-02-01T08:43:05;12.93;;;2.03;;
18449;SDS011;9354;50.194;7.690;2023-02-01T08:45:33;18.87;;;2.90;;
18449;SDS011;9354;50.194;7.690;2023-02-01T08:48:00;11.37;;;2.27;;
18449;SDS011;9354;50.194;7.690;2023-02-01T08:50:27;13.00;;;2.70;;
18449;SDS011;9354;50.194;7.690;2023-02-01T08:52:55;16.43;;;2.57;;
18449;SDS011;9354;50.194;7.690;2023-02-01T08:55:22;10.27;;;2.97;;
18449;SDS011;9354;50.194;7.690;2023-02-01T08:57:50;14.87;;;2.97;;
18449;SDS011;9354;50.194;7.690;2023-02-01T09:00:18;11.67;;;3.03;;
18449;SDS011;9354;50.194;7.690;2023-02-01T09:02:46;17.17;;;3.33;;
18449;SDS011;9354;50.194;7.690;2023-02-01T09:05:13;15.50;;;3.47;;
18449;SDS011;9354;50.194;7.690;2023-02-01T09:07:42;8.87;;;3.10;;
18449;SDS011;9354;50.194;7.690;2023-02-01T09:10:10;13.13;;;3.20;;
18449;SDS011;9354;50.194;7.690;2023-02-01T09:12:37;11.67;;;2.73;;
18449;SDS011;9354;50.194;7.690;2023-02-01T09:15:05;15.47;;;3.33;;
18449;SDS011;9354;50.194;7.690;2023-02-01T09:17:35;12.53;;;2.97;;
18449;SDS011;9354;50.194;7.690;2023-02-01T09:20:03;17.30;;;3.47;;
18449;SDS011;9354;50.194;7.690;2023-02-01T09:22:31;11.77;;;3.10;;
18449;SDS011;9354;50.194;7.690;2023-02-01T09:24:58;10.37;;;2.37;;
18449;SDS011;9354;50.194;7.690;2023-02-01T09:27:25;15.33;;;2.70;;
18449;SDS011;9354;50.194;7.690;2023-02-01T09:29:53;9.77;;;2.30;;
18449;SDS011;9354;50.194;7.690;2023-02-01T09:32:21;12.60;;;2.37;;
18449;SDS011;9354;50.194;7.690;2023-02-01T09:34:51;13.33;;;2.53;;
18449;SDS011;9354;50.194;7.690;2023-02-01T09:37:19;15.63;;;2.80;;
18449;SDS011;9354;50.194;7.690;2023-02-01T09:39:46;16.33;;;2.63;;
18449;SDS011;9354;50.194;7.690;2023-02-01T09:42:16;17.10;;;2.93;;
18449;SDS011;9354;50.194;7.690;2023-02-01T09:45:10;13.50;;;2.83;;
18449;SDS011;9354;50.194;7.690;2023-02-01T09:47:47;10.77;;;2.43;;
18449;SDS011;9354;50.194;7.690;2023-02-01T09:50:19;12.57;;;2.50;;
18449;SDS011;9354;50.194;7.690;2023-02-01T09:52:52;7.87;;;2.03;;
18449;SDS011;9354;50.194;7.690;2023-02-01T09:55:25;15.07;;;3.27;;
18449;SDS011;9354;50.194;7.690;2023-02-01T09:58:01;12.87;;;2.30;;
18449;SDS011;9354;50.194;7.690;2023-02-01T10:00:33;21.33;;;3.50;;
18449;SDS011;9354;50.194;7.690;2023-02-01T10:03:03;15.23;;;3.00;;
18449;SDS011;9354;50.194;7.690;2023-02-01T10:08:26;17.57;;;3.93;;
18449;SDS011;9354;50.194;7.690;2023-02-01T10:11:04;19.20;;;3.57;;
18449;SDS011;9354;50.194;7.690;2023-02-01T10:13:45;15.73;;;2.20;;
18449;SDS011;9354;50.194;7.690;2023-02-01T10:16:23;15.10;;;2.80;;
18449;SDS011;9354;50.194;7.690;2023-02-01T10:19:04;17.47;;;3.10;;
18449;SDS011;9354;50.194;7.690;2023-02-01T10:21:56;17.43;;;2.60;;
18449;SDS011;9354;50.194;7.690;2023-02-01T10:27:12;15.00;;;3.20;;
18449;SDS011;9354;50.194;7.690;2023-02-01T10:29:44;14.20;;;2.43;;
18449;SDS011;9354;50.194;7.690;2023-02-01T10:32:16;10.60;;;2.50;;
18449;SDS011;9354;50.194;7.690;2023-02-01T10:34:46;15.77;;;2.80;;
18449;SDS011;9354;50.194;7.690;2023-02-01T10:37:23;15.37;;;2.17;;
18449;SDS011;9354;50.194;7.690;2023-02-01T10:39:54;16.83;;;2.53;;
18449;SDS011;9354;50.194;7.690;2023-02-01T10:42:24;15.00;;;2.80;;
18449;SDS011;9354;50.194;7.690;2023-02-01T10:44:53;15.07;;;2.37;;
18449;SDS011;9354;50.194;7.690;2023-02-01T10:47:22;14.20;;;3.50;;
18449;SDS011;9354;50.194;7.690;2023-02-01T10:49:52;13.37;;;2.47;;
18449;SDS011;9354;50.194;7.690;2023-02-01T10:52:30;36.20;;;8.17;;
18449;SDS011;9354;50.194;7.690;2023-02-01T10:55:25;10.20;;;2.80;;
18449;SDS011;9354;50.194;7.690;2023-02-01T10:57:59;19.20;;;3.70;;
18449;SDS011;9354;50.194;7.690;2023-02-01T11:00:29;18.33;;;4.87;;
18449;SDS011;9354;50.194;7.690;2023-02-01T11:03:18;11.87;;;2.23;;
18449;SDS011;9354;50.194;7.690;2023-02-01T11:05:58;17.47;;;3.80;;
18449;SDS011;9354;50.194;7.690;2023-02-01T11:08:30;20.17;;;4.33;;
18449;SDS011;9354;50.194;7.690;2023-02-01T11:10:59;10.40;;;2.20;;
18449;SDS011;9354;50.194;7.690;2023-02-01T11:13:29;15.33;;;2.30;;
18449;SDS011;9354;50.194;7.690;2023-02-01T11:15:59;11.63;;;2.20;;
18449;SDS011;9354;50.194;7.690;2023-02-01T11:18:30;15.90;;;2.73;;
18449;SDS011;9354;50.194;7.690;2023-02-01T11:21:01;13.77;;;2.80;;
18449;SDS011;9354;50.194;7.690;2023-02-01T11:23:31;11.53;;;2.30;;
18449;SDS011;9354;50.194;7.690;2023-02-01T11:26:07;20.20;;;3.47;;
18449;SDS011;9354;50.194;7.690;2023-02-01T11:28:38;15.80;;;3.27;;
18449;SDS011;9354;50.194;7.690;2023-02-01T11:31:11;7.03;;;2.30;;
18449;SDS011;9354;50.194;7.690;2023-02-01T11:33:43;14.73;;;2.53;;
18449;SDS011;9354;50.194;7.690;2023-02-01T11:36:16;16.10;;;2.80;;
18449;SDS011;9354;50.194;7.690;2023-02-01T11:38:53;15.67;;;2.33;;
18449;SDS011;9354;50.194;7.690;2023-02-01T11:41:33;12.20;;;2.47;;
18449;SDS011;9354;50.194;7.690;2023-02-01T11:44:01;10.60;;;2.40;;
18449;SDS011;9354;50.194;7.690;2023-02-01T11:46:43;12.07;;;2.30;;
18449;SDS011;9354;50.194;7.690;2023-02-01T11:49:14;11.87;;;2.50;;
18449;SDS011;9354;50.194;7.690;2023-02-01T11:51:49;14.57;;;2.27;;
18449;SDS011;9354;50.194;7.690;2023-02-01T11:54:37;17.30;;;2.50;;
18449;SDS011;9354;50.194;7.690;2023-02-01T11:57:24;9.90;;;2.87;;
18449;SDS011;9354;50.194;7.690;2023-02-01T12:00:21;16.33;;;3.20;;
18449;SDS011;9354;50.194;7.690;2023-02-01T12:06:28;20.40;;;2.73;;
18449;SDS011;9354;50.194;7.690;2023-02-01T12:09:12;14.90;;;2.93;;
18449;SDS011;9354;50.194;7.690;2023-02-01T12:11:55;13.93;;;2.40;;
18449;SDS011;9354;50.194;7.690;2023-02-01T12:14:33;14.23;;;2.77;;
18449;SDS011;9354;50.194;7.690;2023-02-01T12:17:36;13.63;;;2.20;;
18449;SDS011;9354;50.194;7.690;2023-02-01T12:20:34;9.27;;;2.07;;
18449;SDS011;9354;50.194;7.690;2023-02-01T12:23:19;25.03;;;2.40;;
18449;SDS011;9354;50.194;7.690;2023-02-01T12:26:32;9.00;;;2.10;;
18449;SDS011;9354;50.194;7.690;2023-02-01T12:29:24;13.33;;;2.40;;
18449;SDS011;9354;50.194;7.690;2023-02-01T12:32:11;6.70;;;1.90;;
18449;SDS011;9354;50.194;7.690;2023-02-01T12:37:44;12.00;;;2.83;;
18449;SDS011;9354;50.194;7.690;2023-02-01T12:40:25;13.80;;;2.30;;
18449;SDS011;9354;50.194;7.690;2023-02-01T12:43:22;11.20;;;3.70;;
18449;SDS011;9354;50.194;7.690;2023-02-01T12:45:57;12.67;;;2.30;;
18449;SDS011;9354;50.194;7.690;2023-02-01T12:48:30;12.17;;;2.30;;
18449;SDS011;9354;50.194;7.690;2023-02-01T12:51:02;14.10;;;2.20;;
18449;SDS011;9354;50.194;7.690;2023-02-01T12:53:38;14.50;;;2.50;;
18449;SDS011;9354;50.194;7.690;2023-02-01T12:56:13;10.13;;;1.90;;
18449;SDS011;9354;50.194;7.690;2023-02-01T12:58:45;11.97;;;2.30;;
18449;SDS011;9354;50.194;7.690;2023-02-01T13:01:18;19.00;;;2.10;;
18449;SDS011;9354;50.194;7.690;2023-02-01T13:03:52;14.40;;;2.80;;
18449;SDS011;9354;50.194;7.690;2023-02-01T13:06:26;18.70;;;2.03;;
18449;SDS011;9354;50.194;7.690;2023-02-01T13:08:59;17.53;;;2.40;;
18449;SDS011;9354;50.194;7.690;2023-02-01T13:11:31;14.90;;;2.23;;
18449;SDS011;9354;50.194;7.690;2023-02-01T13:14:01;9.67;;;2.17;;
18449;SDS011;9354;50.194;7.690;2023-02-01T13:16:37;16.23;;;3.53;;
18449;SDS011;9354;50.194;7.690;2023-02-01T13:19:10;16.30;;;2.37;;
18449;SDS011;9354;50.194;7.690;2023-02-01T13:21:45;19.90;;;2.27;;
18449;SDS011;9354;50.194;7.690;2023-02-01T13:24:20;9.93;;;2.63;;
18449;SDS011;9354;50.194;7.690;2023-02-01T13:26:55;9.97;;;2.33;;
18449;SDS011;9354;50.194;7.690;2023-02-01T13:29:24;10.97;;;3.33;;
18449;SDS011;9354;50.194;7.690;2023-02-01T13:35:21;11.60;;;2.40;;
18449;SDS011;9354;50.194;7.690;2023-02-01T13:38:11;10.23;;;2.07;;
18449;SDS011;9354;50.194;7.690;2023-02-01T13:40:55;16.60;;;2.83;;
18449;SDS011;9354;50.194;7.690;2023-02-01T13:43:33;8.20;;;1.93;;
18449;SDS011;9354;50.194;7.690;2023-02-01T13:46:04;14.60;;;2.07;;
18449;SDS011;9354;50.194;7.690;2023-02-01T13:48:36;10.47;;;2.07;;
18449;SDS011;9354;50.194;7.690;2023-02-01T13:51:07;10.40;;;1.83;;
18449;SDS011;9354;50.194;7.690;2023-02-01T13:53:35;10.73;;;1.70;;
18449;SDS011;9354;50.194;7.690;2023-02-01T13:56:06;14.60;;;2.63;;
18449;SDS011;9354;50.194;7.690;2023-02-01T13:58:38;20.03;;;3.17;;
18449;SDS011;9354;50.194;7.690;2023-02-01T14:04:02;13.67;;;3.57;;
18449;SDS011;9354;50.194;7.690;2023-02-01T14:06:35;7.07;;;1.97;;
18449;SDS011;9354;50.194;7.690;2023-02-01T14:09:16;10.60;;;2.60;;
18449;SDS011;9354;50.194;7.690;2023-02-01T14:11:48;11.07;;;2.27;;
18449;SDS011;9354;50.194;7.690;2023-02-01T14:23:16;15.33;;;2.93;;
18449;SDS011;9354;50.194;7.690;2023-02-01T14:25:46;15.03;;;2.10;;
18449;SDS011;9354;50.194;7.690;2023-02-01T14:28:28;20.10;;;4.13;;
18449;SDS011;9354;50.194;7.690;2023-02-01T14:30:56;18.63;;;4.17;;
18449;SDS011;9354;50.194;7.690;2023-02-01T14:33:26;17.53;;;2.87;;
18449;SDS011;9354;50.194;7.690;2023-02-01T14:36:00;19.00;;;4.90;;
18449;SDS011;9354;50.194;7.690;2023-02-01T14:38:35;23.57;;;5.40;;
18449;SDS011;9354;50.194;7.690;2023-02-01T14:47:27;22.67;;;5.77;;
18449;SDS011;9354;50.194;7.690;2023-02-01T14:50:03;20.40;;;4.47;;
18449;SDS011;9354;50.194;7.690;2023-02-01T14:52:46;20.30;;;5.83;;
18449;SDS011;9354;50.194;7.690;2023-02-01T14:55:20;25.73;;;6.13;;
18449;SDS011;9354;50.194;7.690;2023-02-01T14:57:52;14.07;;;2.63;;
18449;SDS011;9354;50.194;7.690;2023-02-01T15:00:23;10.10;;;1.80;;
18449;SDS011;9354;50.194;7.690;2023-02-01T15:02:52;11.90;;;1.70;;
18449;SDS011;9354;50.194;7.690;2023-02-01T15:05:23;10.13;;;2.00;;
18449;SDS011;9354;50.194;7.690;2023-02-01T15:08:07;11.67;;;2.40;;
18449;SDS011;9354;50.194;7.690;2023-02-01T15:10:43;9.93;;;2.43;;
18449;SDS011;9354;50.194;7.690;2023-02-01T15:13:17;12.07;;;1.80;;
18449;SDS011;9354;50.194;7.690;2023-02-01T15:15:59;13.13;;;1.80;;
18449;SDS011;9354;50.194;7.690;2023-02-01T15:18:27;8.57;;;1.67;;
18449;SDS011;9354;50.194;7.690;2023-02-01T15:20:58;10.03;;;1.57;;
18449;SDS011;9354;50.194;7.690;2023-02-01T15:23:27;13.37;;;1.90;;
18449;SDS011;9354;50.194;7.690;2023-02-01T15:25:56;9.53;;;1.70;;
18449;SDS011;9354;50.194;7.690;2023-02-01T15:28:25;17.70;;;2.23;;
18449;SDS011;9354;50.194;7.690;2023-02-01T15:30:54;8.57;;;1.50;;
18449;SDS011;9354;50.194;7.690;2023-02-01T15:33:23;7.60;;;2.27;;
18449;SDS011;9354;50.194;7.690;2023-02-01T15:35:51;11.67;;;1.77;;
18449;SDS011;9354;50.194;7.690;2023-02-01T15:38:30;10.50;;;1.47;;
18449;SDS011;9354;50.194;7.690;2023-02-01T15:41:03;12.43;;;2.03;;
18449;SDS011;9354;50.194;7.690;2023-02-01T15:43:33;13.20;;;1.77;;
18449;SDS011;9354;50.194;7.690;2023-02-01T15:46:03;10.77;;;1.80;;
18449;SDS011;9354;50.194;7.690;2023-02-01T15:48:36;11.27;;;1.90;;
18449;SDS011;9354;50.194;7.690;2023-02-01T15:51:05;7.97;;;1.93;;
18449;SDS011;9354;50.194;7.690;2023-02-01T15:53:38;8.23;;;2.07;;
18449;SDS011;9354;50.194;7.690;2023-02-01T15:56:11;14.17;;;2.00;;